createdAt,value
2023-10-20T00:00:29.355Z,992.11
2023-10-20T00:01:29.383Z,992.14
2023-10-20T00:02:29.516Z,992.08
2023-10-20T00:03:29.430Z,992.03
2023-10-20T00:04:29.364Z,992.03
2023-10-20T00:05:29.329Z,992.01
2023-10-20T00:06:29.299Z,992.01
2023-10-20T00:07:29.277Z,992.00
2023-10-20T00:08:29.338Z,991.94
2023-10-20T00:09:29.257Z,991.95
2023-10-20T00:10:29.240Z,991.99
2023-10-20T00:11:29.276Z,991.96
2023-10-20T00:12:29.223Z,991.96
2023-10-20T00:13:29.209Z,991.98
2023-10-20T00:14:29.304Z,991.93
2023-10-20T00:15:29.193Z,992.01
2023-10-20T00:16:29.178Z,991.98
2023-10-20T00:17:29.199Z,992.04
2023-10-20T00:18:29.161Z,992.00
2023-10-20T00:19:29.145Z,991.98
2023-10-20T00:20:29.156Z,992.07
2023-10-20T00:21:29.112Z,991.95
2023-10-20T00:22:29.109Z,991.96
2023-10-20T00:23:29.154Z,991.90
2023-10-20T00:24:29.080Z,991.90
2023-10-20T00:25:29.068Z,991.86
2023-10-20T00:26:29.113Z,991.85
2023-10-20T00:27:29.076Z,991.85
2023-10-20T00:28:29.034Z,991.82
2023-10-20T00:29:29.052Z,991.92
2023-10-20T00:30:29.012Z,991.88
2023-10-20T00:31:29.061Z,991.94
2023-10-20T00:32:29.061Z,991.78
2023-10-20T00:33:28.972Z,991.75
2023-10-20T00:34:28.970Z,991.69
2023-10-20T00:35:29.013Z,991.67
2023-10-20T00:36:28.945Z,991.69
2023-10-20T00:37:28.933Z,991.73
2023-10-20T00:38:28.933Z,991.77
2023-10-20T00:39:28.906Z,991.74
2023-10-20T00:40:28.896Z,991.79
2023-10-20T00:41:28.925Z,991.67
2023-10-20T00:42:28.869Z,991.65
2023-10-20T00:43:28.857Z,991.60
2023-10-20T00:44:28.874Z,991.54
2023-10-20T00:45:28.860Z,991.66
2023-10-20T00:46:28.830Z,991.61
2023-10-20T00:47:28.874Z,991.71
2023-10-20T00:48:28.899Z,991.60
2023-10-20T00:49:28.787Z,991.59
2023-10-20T00:50:28.850Z,991.59
2023-10-20T00:51:28.770Z,991.52
2023-10-20T00:52:28.755Z,991.55
2023-10-20T00:53:28.804Z,991.61
2023-10-20T00:54:28.727Z,991.53
2023-10-20T00:55:28.717Z,991.54
2023-10-20T00:56:28.728Z,991.51
2023-10-20T00:57:28.704Z,991.56
2023-10-20T00:58:28.691Z,991.67
2023-10-20T00:59:28.714Z,991.57
2023-10-20T01:00:28.676Z,991.52
2023-10-20T01:01:28.715Z,991.50
2023-10-20T01:02:28.723Z,991.50
2023-10-20T01:03:28.929Z,991.44
2023-10-20T01:04:28.621Z,991.41
2023-10-20T01:05:28.662Z,991.37
2023-10-20T01:06:28.586Z,991.33
2023-10-20T01:07:28.583Z,991.34
2023-10-20T01:08:28.583Z,991.39
2023-10-20T01:09:28.690Z,991.40
2023-10-20T01:10:28.541Z,991.43
2023-10-20T01:11:28.588Z,991.44
2023-10-20T01:12:28.522Z,991.47
2023-10-20T01:13:28.541Z,991.47
2023-10-20T01:14:28.524Z,991.51
2023-10-20T01:15:28.497Z,991.48
2023-10-20T01:16:28.475Z,991.52
2023-10-20T01:17:28.565Z,991.47
2023-10-20T01:18:28.455Z,991.54
2023-10-20T01:19:28.442Z,991.52
2023-10-20T01:20:28.475Z,991.53
2023-10-20T01:21:28.417Z,991.58
2023-10-20T01:22:28.401Z,991.62
2023-10-20T01:23:28.467Z,991.62
2023-10-20T01:24:28.395Z,991.58
2023-10-20T01:25:28.382Z,991.57
2023-10-20T01:26:28.384Z,991.67
2023-10-20T01:27:28.361Z,991.51
2023-10-20T01:28:28.332Z,991.47
2023-10-20T01:29:28.377Z,991.45
2023-10-20T01:30:28.334Z,991.48
2023-10-20T01:31:28.300Z,991.45
2023-10-20T01:32:28.310Z,991.48
2023-10-20T01:33:28.382Z,991.48
2023-10-20T01:34:28.272Z,991.42
2023-10-20T01:35:28.388Z,991.43
2023-10-20T01:36:28.242Z,991.36
2023-10-20T01:37:28.242Z,991.34
2023-10-20T01:38:28.240Z,991.34
2023-10-20T01:39:28.255Z,991.31
2023-10-20T01:40:28.203Z,991.41
2023-10-20T01:41:28.230Z,991.45
2023-10-20T01:42:28.180Z,991.43
2023-10-20T01:43:28.162Z,991.42
2023-10-20T01:44:28.217Z,991.34
2023-10-20T01:45:28.158Z,991.36
2023-10-20T01:46:28.172Z,991.34
2023-10-20T01:47:28.174Z,991.28
2023-10-20T01:48:28.135Z,991.31
2023-10-20T01:49:28.096Z,991.32
2023-10-20T01:50:28.146Z,991.26
2023-10-20T01:51:28.082Z,991.25
2023-10-20T01:52:28.061Z,991.17
2023-10-20T01:53:28.106Z,991.15
2023-10-20T01:54:28.035Z,991.21
2023-10-20T01:55:28.094Z,991.19
2023-10-20T01:56:28.062Z,991.14
2023-10-20T01:57:28.007Z,991.18
2023-10-20T01:58:27.997Z,991.20
2023-10-20T01:59:28.006Z,991.13
2023-10-20T02:00:27.969Z,991.17
2023-10-20T02:01:28.002Z,991.14
2023-10-20T02:02:28.081Z,991.18
2023-10-20T02:03:28.038Z,991.15
2023-10-20T02:04:27.944Z,991.13
2023-10-20T02:05:27.987Z,991.09
2023-10-20T02:06:27.917Z,991.11
2023-10-20T02:07:27.894Z,991.14
2023-10-20T02:08:27.932Z,991.11
2023-10-20T02:09:27.866Z,991.25
2023-10-20T02:10:27.883Z,991.14
2023-10-20T02:11:27.928Z,991.14
2023-10-20T02:12:27.832Z,991.13
2023-10-20T02:13:27.827Z,991.10
2023-10-20T02:14:27.841Z,991.18
2023-10-20T02:15:27.797Z,991.17
2023-10-20T02:16:27.828Z,991.18
2023-10-20T02:17:27.888Z,991.13
2023-10-20T02:18:27.780Z,991.12
2023-10-20T02:19:27.746Z,991.12
2023-10-20T02:20:27.784Z,991.09
2023-10-20T02:21:27.728Z,991.06
2023-10-20T02:22:27.720Z,991.14
2023-10-20T02:23:27.743Z,991.17
2023-10-20T02:24:27.689Z,991.15
2023-10-20T02:25:27.677Z,991.11
2023-10-20T02:26:27.733Z,991.05
2023-10-20T02:27:27.664Z,991.02
2023-10-20T02:28:27.643Z,991.00
2023-10-20T02:29:27.679Z,990.94
2023-10-20T02:30:27.622Z,991.04
2023-10-20T02:31:27.652Z,991.00
2023-10-20T02:32:27.636Z,990.97
2023-10-20T02:33:27.639Z,990.99
2023-10-20T02:34:27.587Z,990.95
2023-10-20T02:35:27.623Z,991.00
2023-10-20T02:36:27.553Z,991.00
2023-10-20T02:37:27.541Z,991.01
2023-10-20T02:38:27.566Z,990.97
2023-10-20T02:39:27.515Z,990.94
2023-10-20T02:40:27.504Z,990.99
2023-10-20T02:41:27.554Z,990.95
2023-10-20T02:42:27.481Z,990.95
2023-10-20T02:43:27.469Z,990.93
2023-10-20T02:44:27.485Z,990.94
2023-10-20T02:45:27.456Z,990.91
2023-10-20T02:46:27.468Z,990.90
2023-10-20T02:47:27.473Z,990.81
2023-10-20T02:48:27.475Z,990.80
2023-10-20T02:49:27.399Z,990.78
2023-10-20T02:50:27.429Z,990.77
2023-10-20T02:51:27.377Z,990.73
2023-10-20T02:52:27.370Z,990.77
2023-10-20T02:53:27.417Z,990.70
2023-10-20T02:54:27.348Z,990.73
2023-10-20T02:55:27.330Z,990.69
2023-10-20T02:56:27.359Z,990.64
2023-10-20T02:57:27.325Z,990.64
2023-10-20T02:58:27.295Z,990.58
2023-10-20T02:59:27.339Z,990.62
2023-10-20T03:00:27.274Z,990.64
2023-10-20T03:01:27.276Z,990.69
2023-10-20T03:02:27.380Z,990.67
2023-10-20T03:03:27.490Z,990.69
2023-10-20T03:04:27.352Z,990.78
2023-10-20T03:05:27.220Z,990.81
2023-10-20T03:06:27.204Z,990.75
2023-10-20T03:07:27.199Z,990.71
2023-10-20T03:08:27.210Z,990.83
2023-10-20T03:09:27.188Z,990.76
2023-10-20T03:10:27.166Z,990.65
2023-10-20T03:11:27.157Z,990.68
2023-10-20T03:12:27.132Z,990.62
2023-10-20T03:13:27.134Z,990.71
2023-10-20T03:14:27.164Z,990.68
2023-10-20T03:15:27.100Z,990.65
2023-10-20T03:16:27.108Z,990.70
2023-10-20T03:17:27.087Z,990.71
2023-10-20T03:18:27.126Z,990.72
2023-10-20T03:19:27.053Z,990.67
2023-10-20T03:20:27.051Z,990.72
2023-10-20T03:21:27.024Z,990.64
2023-10-20T03:22:27.017Z,990.59
2023-10-20T03:23:27.019Z,990.60
2023-10-20T03:24:26.986Z,990.62
2023-10-20T03:25:26.981Z,990.48
2023-10-20T03:26:27.033Z,990.53
2023-10-20T03:27:27.022Z,990.46
2023-10-20T03:28:26.944Z,990.51
2023-10-20T03:29:26.964Z,990.43
2023-10-20T03:30:26.921Z,990.49
2023-10-20T03:31:26.939Z,990.48
2023-10-20T03:32:26.932Z,990.47
2023-10-20T03:33:26.889Z,990.33
2023-10-20T03:34:26.876Z,990.37
2023-10-20T03:35:26.923Z,990.38
2023-10-20T03:36:26.846Z,990.31
2023-10-20T03:37:26.839Z,990.26
2023-10-20T03:38:26.918Z,990.33
2023-10-20T03:39:26.813Z,990.33
2023-10-20T03:40:26.797Z,990.33
2023-10-20T03:41:26.961Z,990.48
2023-10-20T03:42:26.778Z,990.39
2023-10-20T03:43:26.760Z,990.41
2023-10-20T03:44:26.798Z,990.34
2023-10-20T03:45:26.747Z,990.35
2023-10-20T03:46:26.773Z,990.34
2023-10-20T03:47:26.750Z,990.20
2023-10-20T03:48:26.744Z,990.37
2023-10-20T03:49:26.689Z,990.33
2023-10-20T03:50:26.723Z,990.31
2023-10-20T03:51:26.669Z,990.41
2023-10-20T03:52:26.656Z,990.27
2023-10-20T03:53:26.682Z,990.27
2023-10-20T03:54:26.628Z,990.25
2023-10-20T03:55:26.614Z,990.22
2023-10-20T03:56:26.649Z,990.23
2023-10-20T03:57:26.590Z,990.20
2023-10-20T03:58:26.578Z,990.11
2023-10-20T03:59:26.611Z,990.09
2023-10-20T04:00:26.556Z,990.09
2023-10-20T04:01:26.568Z,990.11
2023-10-20T04:02:26.586Z,990.06
2023-10-20T04:03:26.695Z,990.08
2023-10-20T04:04:26.562Z,990.08
2023-10-20T04:05:26.522Z,990.04
2023-10-20T04:06:26.480Z,990.07
2023-10-20T04:07:26.470Z,990.12
2023-10-20T04:08:26.533Z,990.03
2023-10-20T04:09:26.447Z,989.99
2023-10-20T04:10:26.435Z,989.97
2023-10-20T04:11:26.462Z,989.99
2023-10-20T04:12:26.410Z,989.98
2023-10-20T04:13:26.408Z,989.98
2023-10-20T04:14:26.450Z,989.84
2023-10-20T04:15:26.372Z,989.90
2023-10-20T04:16:26.413Z,989.99
2023-10-20T04:17:26.429Z,989.89
2023-10-20T04:18:26.345Z,989.91
2023-10-20T04:19:26.388Z,989.88
2023-10-20T04:20:26.375Z,989.87
2023-10-20T04:21:26.303Z,989.94
2023-10-20T04:22:26.291Z,989.82
2023-10-20T04:23:26.288Z,989.79
2023-10-20T04:24:26.267Z,989.82
2023-10-20T04:25:26.256Z,989.78
2023-10-20T04:26:26.392Z,989.88
2023-10-20T04:27:26.223Z,989.84
2023-10-20T04:28:26.281Z,989.93
2023-10-20T04:29:26.235Z,989.97
2023-10-20T04:30:26.188Z,989.91
2023-10-20T04:31:26.199Z,989.86
2023-10-20T04:32:26.306Z,989.87
2023-10-20T04:33:26.221Z,989.85
2023-10-20T04:34:26.137Z,989.98
2023-10-20T04:35:26.168Z,989.79
2023-10-20T04:36:26.117Z,989.97
2023-10-20T04:37:26.101Z,989.98
2023-10-20T04:38:26.120Z,989.97
2023-10-20T04:39:26.075Z,989.93
2023-10-20T04:40:26.097Z,989.97
2023-10-20T04:41:26.067Z,989.89
2023-10-20T04:42:26.040Z,989.81
2023-10-20T04:43:26.028Z,989.87
2023-10-20T04:44:26.043Z,989.89
2023-10-20T04:45:26.002Z,989.83
2023-10-20T04:46:26.007Z,989.84
2023-10-20T04:47:26.047Z,989.74
2023-10-20T04:48:25.982Z,989.70
2023-10-20T04:49:25.952Z,989.68
2023-10-20T04:50:25.950Z,989.74
2023-10-20T04:51:25.921Z,989.71
2023-10-20T04:52:25.911Z,989.64
2023-10-20T04:53:25.937Z,989.74
2023-10-20T04:54:25.884Z,989.69
2023-10-20T04:55:25.878Z,989.64
2023-10-20T04:56:25.882Z,989.61
2023-10-20T04:57:25.855Z,989.72
2023-10-20T04:58:25.833Z,990.09
2023-10-20T04:59:25.863Z,989.93
2023-10-20T05:00:25.823Z,989.84
2023-10-20T05:01:25.845Z,989.75
2023-10-20T05:02:25.814Z,989.74
2023-10-20T05:03:25.799Z,989.71
2023-10-20T05:04:25.772Z,989.72
2023-10-20T05:05:25.791Z,989.77
2023-10-20T05:06:25.738Z,989.77
2023-10-20T05:07:25.728Z,989.60
2023-10-20T05:08:25.747Z,989.64
2023-10-20T05:09:25.700Z,989.65
2023-10-20T05:10:25.691Z,989.70
2023-10-20T05:11:25.782Z,989.63
2023-10-20T05:12:25.664Z,989.75
2023-10-20T05:13:25.670Z,989.72
2023-10-20T05:14:25.689Z,989.76
2023-10-20T05:15:25.624Z,989.76
2023-10-20T05:16:25.656Z,989.80
2023-10-20T05:17:25.640Z,989.72
2023-10-20T05:18:25.642Z,989.79
2023-10-20T05:19:25.578Z,989.75
2023-10-20T05:20:25.603Z,989.84
2023-10-20T05:21:25.545Z,989.81
2023-10-20T05:22:25.552Z,989.85
2023-10-20T05:23:25.602Z,989.88
2023-10-20T05:24:25.546Z,989.90
2023-10-20T05:25:25.506Z,989.87
2023-10-20T05:26:25.505Z,989.92
2023-10-20T05:27:25.486Z,989.88
2023-10-20T05:28:25.464Z,989.97
2023-10-20T05:29:25.500Z,989.85
2023-10-20T05:30:25.445Z,989.89
2023-10-20T05:31:25.479Z,989.90
2023-10-20T05:32:25.509Z,989.91
2023-10-20T05:33:25.421Z,989.86
2023-10-20T05:34:25.389Z,989.88
2023-10-20T05:35:25.414Z,989.89
2023-10-20T05:36:25.369Z,989.89
2023-10-20T05:37:25.358Z,989.98
2023-10-20T05:38:25.400Z,989.87
2023-10-20T05:39:25.354Z,989.86
2023-10-20T05:40:25.363Z,989.88
2023-10-20T05:41:25.354Z,989.91
2023-10-20T05:42:25.320Z,989.98
2023-10-20T05:43:25.294Z,989.93
2023-10-20T05:44:25.311Z,989.93
2023-10-20T05:45:25.274Z,989.91
2023-10-20T05:46:25.273Z,989.90
2023-10-20T05:47:25.331Z,989.78
2023-10-20T05:48:25.367Z,989.76
2023-10-20T05:49:25.233Z,989.76
2023-10-20T05:50:25.232Z,989.80
2023-10-20T05:51:25.211Z,989.65
2023-10-20T05:52:25.194Z,989.66
2023-10-20T05:53:25.222Z,989.64
2023-10-20T05:54:25.164Z,989.62
2023-10-20T05:55:25.183Z,989.62
2023-10-20T05:56:25.189Z,989.59
2023-10-20T05:57:25.130Z,989.58
2023-10-20T05:58:25.125Z,989.58
2023-10-20T05:59:25.152Z,989.54
2023-10-20T06:00:25.102Z,989.53
2023-10-20T06:01:25.093Z,989.55
2023-10-20T06:02:25.134Z,989.62
2023-10-20T06:03:25.112Z,989.51
2023-10-20T06:04:25.075Z,989.56
2023-10-20T06:05:25.079Z,989.49
2023-10-20T06:06:25.051Z,989.51
2023-10-20T06:07:25.012Z,989.53
2023-10-20T06:08:25.039Z,989.52
2023-10-20T06:09:24.985Z,989.53
2023-10-20T06:10:25.013Z,989.39
2023-10-20T06:11:25.048Z,989.44
2023-10-20T06:12:24.960Z,989.44
2023-10-20T06:13:24.939Z,989.42
2023-10-20T06:14:24.977Z,989.48
2023-10-20T06:15:24.943Z,989.43
2023-10-20T06:16:24.970Z,989.31
2023-10-20T06:17:24.922Z,989.27
2023-10-20T06:18:34.980Z,989.34
2023-10-20T06:19:24.872Z,989.31
2023-10-20T06:20:24.912Z,989.39
2023-10-20T06:21:24.853Z,989.43
2023-10-20T06:22:24.839Z,989.45
2023-10-20T06:23:24.851Z,989.46
2023-10-20T06:24:24.830Z,989.63
2023-10-20T06:25:24.845Z,989.78
2023-10-20T06:26:24.806Z,989.57
2023-10-20T06:27:24.780Z,989.81
2023-10-20T06:28:24.765Z,989.67
2023-10-20T06:29:24.774Z,989.53
2023-10-20T06:30:24.747Z,989.59
2023-10-20T06:31:24.774Z,989.60
2023-10-20T06:32:24.761Z,989.56
2023-10-20T06:33:24.719Z,989.53
2023-10-20T06:34:24.675Z,989.52
2023-10-20T06:35:24.707Z,989.55
2023-10-20T06:36:24.652Z,989.46
2023-10-20T06:37:24.647Z,989.39
2023-10-20T06:38:24.694Z,989.47
2023-10-20T06:39:24.611Z,989.43
2023-10-20T06:40:24.600Z,989.43
2023-10-20T06:41:24.629Z,989.42
2023-10-20T06:42:24.588Z,989.36
2023-10-20T06:43:24.564Z,989.45
2023-10-20T06:44:24.577Z,989.32
2023-10-20T06:45:24.537Z,989.20
2023-10-20T06:46:24.574Z,989.21
2023-10-20T06:47:24.581Z,989.21
2023-10-20T06:48:24.560Z,989.19
2023-10-20T06:49:24.492Z,989.12
2023-10-20T06:50:24.496Z,989.14
2023-10-20T06:51:24.462Z,989.10
2023-10-20T06:52:24.454Z,989.06
2023-10-20T06:53:24.474Z,988.99
2023-10-20T06:54:24.419Z,988.95
2023-10-20T06:55:54.394Z,988.92
2023-10-20T06:56:27.980Z,989.03
2023-10-20T06:57:24.410Z,988.93
2023-10-20T06:58:24.373Z,988.94
2023-10-20T06:59:24.392Z,989.00
2023-10-20T07:00:24.349Z,989.03
2023-10-20T07:01:24.361Z,989.18
2023-10-20T07:02:24.378Z,989.11
2023-10-20T07:03:24.449Z,989.11
2023-10-20T07:04:24.346Z,989.07
2023-10-20T07:05:24.352Z,989.08
2023-10-20T07:06:24.278Z,988.91
2023-10-20T07:07:24.264Z,988.91
2023-10-20T07:08:24.260Z,988.99
2023-10-20T07:09:24.242Z,988.90
2023-10-20T07:10:24.227Z,988.95
2023-10-20T07:11:24.248Z,988.94
2023-10-20T07:12:24.203Z,988.96
2023-10-20T07:13:24.191Z,988.92
2023-10-20T07:14:24.201Z,988.90
2023-10-20T07:15:24.167Z,988.96
2023-10-20T07:16:24.231Z,988.95
2023-10-20T07:17:24.200Z,988.93
2023-10-20T07:18:24.177Z,988.97
2023-10-20T07:19:24.141Z,988.94
2023-10-20T07:20:24.163Z,988.98
2023-10-20T07:21:24.157Z,988.91
2023-10-20T07:22:26.658Z,988.91
2023-10-20T07:23:24.145Z,988.90
2023-10-20T07:24:24.054Z,988.80
2023-10-20T07:25:24.045Z,988.79
2023-10-20T07:26:24.052Z,988.70
2023-10-20T07:27:24.016Z,988.67
2023-10-20T07:28:24.001Z,988.66
2023-10-20T07:29:24.011Z,988.54
2023-10-20T07:30:23.985Z,988.59
2023-10-20T07:31:23.981Z,988.56
2023-10-20T07:32:23.973Z,988.59
2023-10-20T07:33:23.958Z,988.64
2023-10-20T07:34:23.961Z,988.72
2023-10-20T07:35:23.985Z,988.81
2023-10-20T07:36:23.901Z,988.75
2023-10-20T07:37:23.905Z,988.86
2023-10-20T07:38:23.950Z,988.98
2023-10-20T07:39:23.874Z,988.83
2023-10-20T07:40:23.850Z,988.88
2023-10-20T07:41:23.895Z,988.79
2023-10-20T07:42:23.832Z,988.74
2023-10-20T07:43:23.818Z,988.75
2023-10-20T07:44:23.852Z,988.65
2023-10-20T07:45:23.833Z,988.63
2023-10-20T07:46:23.782Z,988.62
2023-10-20T07:47:23.836Z,988.59
2023-10-20T07:48:23.764Z,988.58
2023-10-20T07:49:23.758Z,988.65
2023-10-20T07:50:23.824Z,988.59
2023-10-20T07:51:23.779Z,988.48
2023-10-20T07:52:23.703Z,988.58
2023-10-20T07:53:23.723Z,988.47
2023-10-20T07:54:23.693Z,988.48
2023-10-20T07:55:23.671Z,988.39
2023-10-20T07:56:23.728Z,988.37
2023-10-20T07:57:23.640Z,988.44
2023-10-20T07:58:23.632Z,988.45
2023-10-20T07:59:23.651Z,988.36
2023-10-20T08:00:23.603Z,988.32
2023-10-20T08:01:23.675Z,988.32
2023-10-20T08:02:23.644Z,988.26
2023-10-20T08:03:23.875Z,988.14
2023-10-20T08:04:23.728Z,988.14
2023-10-20T08:05:23.738Z,988.32
2023-10-20T08:06:24.101Z,988.36
2023-10-20T08:07:23.647Z,988.34
2023-10-20T08:08:23.526Z,988.32
2023-10-20T08:09:23.492Z,988.27
2023-10-20T08:10:23.471Z,988.17
2023-10-20T08:11:23.515Z,988.18
2023-10-20T08:12:23.454Z,988.16
2023-10-20T08:13:23.438Z,988.14
2023-10-20T08:14:23.454Z,988.05
2023-10-20T08:15:23.422Z,988.11
2023-10-20T08:16:23.423Z,988.01
2023-10-20T08:17:23.466Z,988.02
2023-10-20T08:18:23.460Z,988.08
2023-10-20T08:19:23.365Z,988.14
2023-10-20T08:20:23.415Z,988.10
2023-10-20T08:21:23.340Z,988.18
2023-10-20T08:22:24.630Z,988.23
2023-10-20T08:23:23.341Z,988.17
2023-10-20T08:24:23.314Z,988.01
2023-10-20T08:25:23.313Z,988.17
2023-10-20T08:26:23.302Z,988.07
2023-10-20T08:27:23.264Z,988.19
2023-10-20T08:28:23.260Z,988.12
2023-10-20T08:29:23.287Z,988.15
2023-10-20T08:30:23.225Z,988.14
2023-10-20T08:31:23.425Z,988.13
2023-10-20T08:32:23.239Z,988.29
2023-10-20T08:33:23.233Z,988.28
2023-10-20T08:34:23.182Z,988.29
2023-10-20T08:35:23.188Z,988.27
2023-10-20T08:36:23.148Z,988.38
2023-10-20T08:37:23.158Z,988.40
2023-10-20T08:38:23.188Z,988.44
2023-10-20T08:39:23.119Z,988.44
2023-10-20T08:40:23.101Z,988.44
2023-10-20T08:41:23.253Z,988.44
2023-10-20T08:42:23.157Z,988.42
2023-10-20T08:43:23.078Z,988.36
2023-10-20T08:44:23.064Z,988.32
2023-10-20T08:45:23.047Z,988.32
2023-10-20T08:46:23.084Z,988.46
2023-10-20T08:47:24.496Z,988.44
2023-10-20T08:48:23.080Z,988.38
2023-10-20T08:49:23.011Z,988.43
2023-10-20T08:50:23.036Z,988.48
2023-10-20T08:51:22.966Z,988.39
2023-10-20T08:52:22.948Z,988.52
2023-10-20T08:53:23.014Z,988.44
2023-10-20T08:54:22.934Z,988.45
2023-10-20T08:55:22.923Z,988.36
2023-10-20T08:56:23.909Z,988.26
2023-10-20T08:57:24.670Z,988.26
2023-10-20T08:58:22.890Z,988.28
2023-10-20T08:59:22.906Z,988.19
2023-10-20T09:00:23.318Z,988.18
2023-10-20T09:01:22.867Z,988.17
2023-10-20T09:02:22.856Z,988.18
2023-10-20T09:03:22.991Z,988.25
2023-10-20T09:04:22.860Z,988.13
2023-10-20T09:05:22.812Z,988.27
2023-10-20T09:06:22.779Z,988.20
2023-10-20T09:07:22.778Z,988.33
2023-10-20T09:08:22.847Z,988.37
2023-10-20T09:09:22.746Z,988.37
2023-10-20T09:10:22.731Z,988.30
2023-10-20T09:11:22.739Z,988.30
2023-10-20T09:12:24.719Z,988.30
2023-10-20T09:13:22.690Z,988.33
2023-10-20T09:14:22.703Z,988.23
2023-10-20T09:15:22.674Z,988.06
2023-10-20T09:16:22.678Z,988.19
2023-10-20T09:17:22.677Z,988.17
2023-10-20T09:18:22.640Z,988.29
2023-10-20T09:19:22.616Z,988.15
2023-10-20T09:20:22.655Z,988.18
2023-10-20T09:21:22.593Z,988.06
2023-10-20T09:22:22.577Z,988.12
2023-10-20T09:23:22.572Z,988.13
2023-10-20T09:24:22.557Z,988.14
2023-10-20T09:25:22.586Z,988.10
2023-10-20T09:26:22.536Z,988.09
2023-10-20T09:27:22.621Z,988.07
2023-10-20T09:28:22.500Z,988.13
2023-10-20T09:29:22.521Z,988.09
2023-10-20T09:30:22.482Z,988.17
2023-10-20T09:31:22.539Z,988.15
2023-10-20T09:32:22.506Z,988.15
2023-10-20T09:33:22.550Z,988.14
2023-10-20T09:34:22.438Z,988.15
2023-10-20T09:35:22.461Z,988.03
2023-10-20T09:36:22.404Z,988.05
2023-10-20T09:37:22.388Z,988.02
2023-10-20T09:38:22.428Z,987.96
2023-10-20T09:39:22.361Z,987.97
2023-10-20T09:40:22.354Z,987.99
2023-10-20T09:41:22.401Z,988.02
2023-10-20T09:42:22.324Z,987.78
2023-10-20T09:43:26.092Z,987.78
2023-10-20T09:44:22.347Z,987.77
2023-10-20T09:45:22.289Z,987.85
2023-10-20T09:46:22.312Z,987.82
2023-10-20T09:47:22.303Z,987.71
2023-10-20T09:48:22.319Z,987.75
2023-10-20T09:49:22.243Z,987.71
2023-10-20T09:50:22.297Z,987.74
2023-10-20T09:51:22.217Z,987.82
2023-10-20T09:52:22.205Z,987.71
2023-10-20T09:53:22.198Z,987.77
2023-10-20T09:54:22.180Z,987.84
2023-10-20T09:55:22.184Z,987.75
2023-10-20T09:56:22.184Z,987.72
2023-10-20T09:57:22.154Z,987.74
2023-10-20T09:58:22.126Z,987.69
2023-10-20T09:59:22.198Z,987.66
2023-10-20T10:00:22.116Z,987.59
2023-10-20T10:01:22.166Z,987.58
2023-10-20T10:02:22.131Z,987.54
2023-10-20T10:03:22.213Z,987.55
2023-10-20T10:04:22.051Z,987.52
2023-10-20T10:05:22.162Z,987.49
2023-10-20T10:06:22.026Z,987.59
2023-10-20T10:07:22.014Z,987.55
2023-10-20T10:08:22.027Z,987.52
2023-10-20T10:09:22.003Z,987.55
2023-10-20T10:10:21.979Z,987.59
2023-10-20T10:11:21.988Z,987.59
2023-10-20T10:12:21.955Z,987.52
2023-10-20T10:13:21.941Z,987.48
2023-10-20T10:14:21.969Z,987.49
2023-10-20T10:15:21.985Z,987.57
2023-10-20T10:16:21.920Z,987.49
2023-10-20T10:17:21.919Z,987.48
2023-10-20T10:18:21.985Z,987.55
2023-10-20T10:19:21.859Z,987.44
2023-10-20T10:20:21.880Z,987.52
2023-10-20T10:21:21.843Z,987.46
2023-10-20T10:22:21.834Z,987.46
2023-10-20T10:23:21.841Z,987.44
2023-10-20T10:24:22.692Z,987.33
2023-10-20T10:25:21.788Z,987.45
2023-10-20T10:26:21.803Z,987.50
2023-10-20T10:27:21.842Z,987.38
2023-10-20T10:28:21.934Z,987.47
2023-10-20T10:29:21.774Z,987.39
2023-10-20T10:30:22.362Z,987.43
2023-10-20T10:31:21.729Z,987.50
2023-10-20T10:32:21.721Z,987.46
2023-10-20T10:33:21.813Z,987.47
2023-10-20T10:34:22.153Z,987.42
2023-10-20T10:35:24.358Z,987.66
2023-10-20T10:36:21.652Z,987.50
2023-10-20T10:37:21.636Z,987.49
2023-10-20T10:38:21.731Z,987.53
2023-10-20T10:39:21.611Z,987.49
2023-10-20T10:40:21.597Z,987.47
2023-10-20T10:41:21.600Z,987.45
2023-10-20T10:42:21.576Z,987.43
2023-10-20T10:43:21.559Z,987.46
2023-10-20T10:44:21.577Z,987.43
2023-10-20T10:45:21.637Z,987.35
2023-10-20T10:46:21.554Z,987.38
2023-10-20T10:47:21.531Z,987.44
2023-10-20T10:48:21.629Z,987.25
2023-10-20T10:49:21.491Z,987.34
2023-10-20T10:50:21.895Z,987.39
2023-10-20T10:51:21.553Z,987.41
2023-10-20T10:52:21.448Z,987.41
2023-10-20T10:53:21.462Z,987.39
2023-10-20T10:54:21.427Z,987.33
2023-10-20T10:55:21.414Z,987.38
2023-10-20T10:56:21.426Z,987.44
2023-10-20T10:57:21.391Z,987.61
2023-10-20T10:58:21.374Z,987.32
2023-10-20T10:59:21.385Z,987.24
2023-10-20T11:00:21.356Z,987.34
2023-10-20T11:01:21.341Z,987.29
2023-10-20T11:02:21.326Z,987.45
2023-10-20T11:03:22.422Z,987.28
2023-10-20T11:04:21.362Z,987.26
2023-10-20T11:05:21.338Z,987.30
2023-10-20T11:06:21.271Z,987.23
2023-10-20T11:07:21.263Z,987.28
2023-10-20T11:08:21.317Z,987.34
2023-10-20T11:09:21.235Z,987.34
2023-10-20T11:10:21.223Z,987.32
2023-10-20T11:11:21.237Z,987.37
2023-10-20T11:12:21.202Z,987.29
2023-10-20T11:13:22.050Z,987.43
2023-10-20T11:14:22.364Z,987.33
2023-10-20T11:15:23.293Z,987.37
2023-10-20T11:16:21.179Z,987.42
2023-10-20T11:17:21.154Z,987.42
2023-10-20T11:18:21.170Z,987.38
2023-10-20T11:19:21.115Z,987.46
2023-10-20T11:20:21.108Z,987.39
2023-10-20T11:21:21.087Z,987.45
2023-10-20T11:22:21.087Z,987.35
2023-10-20T11:23:21.194Z,987.38
2023-10-20T11:24:21.143Z,987.38
2023-10-20T11:25:21.051Z,987.42
2023-10-20T11:26:21.152Z,987.37
2023-10-20T11:27:21.021Z,987.48
2023-10-20T11:28:21.004Z,987.35
2023-10-20T11:29:21.034Z,987.54
2023-10-20T11:30:21.023Z,987.44
2023-10-20T11:31:20.982Z,987.42
2023-10-20T11:32:21.001Z,987.46
2023-10-20T11:33:21.015Z,987.44
2023-10-20T11:34:20.926Z,987.46
2023-10-20T11:35:20.942Z,987.44
2023-10-20T11:36:20.905Z,987.49
2023-10-20T11:37:20.900Z,987.42
2023-10-20T11:38:20.889Z,987.52
2023-10-20T11:39:20.875Z,987.49
2023-10-20T11:40:20.898Z,987.41
2023-10-20T11:41:20.902Z,987.50
2023-10-20T11:42:20.843Z,987.45
2023-10-20T11:43:20.820Z,987.34
2023-10-20T11:44:20.853Z,987.46
2023-10-20T11:45:20.796Z,987.41
2023-10-20T11:46:20.823Z,987.52
2023-10-20T11:47:20.794Z,987.44
2023-10-20T11:48:20.790Z,987.45
2023-10-20T11:49:20.752Z,987.54
2023-10-20T11:50:21.013Z,987.44
2023-10-20T11:51:20.730Z,987.46
2023-10-20T11:52:20.712Z,987.50
2023-10-20T11:53:20.718Z,987.41
2023-10-20T11:54:20.721Z,987.35
2023-10-20T11:55:20.677Z,987.35
2023-10-20T11:56:20.688Z,987.44
2023-10-20T11:57:20.654Z,987.50
2023-10-20T11:58:20.654Z,987.43
2023-10-20T11:59:20.655Z,987.42
2023-10-20T12:00:20.616Z,987.44
2023-10-20T12:01:20.625Z,987.48
2023-10-20T12:02:22.367Z,987.45
2023-10-20T12:03:20.635Z,987.38
2023-10-20T12:04:20.586Z,987.41
2023-10-20T12:05:20.601Z,987.40
2023-10-20T12:06:20.548Z,987.41
2023-10-20T12:07:20.539Z,987.40
2023-10-20T12:08:20.539Z,987.50
2023-10-20T12:09:20.508Z,987.44
2023-10-20T12:10:20.496Z,987.40
2023-10-20T12:11:20.519Z,987.45
2023-10-20T12:12:20.474Z,987.39
2023-10-20T12:13:20.471Z,987.41
2023-10-20T12:14:21.710Z,987.36
2023-10-20T12:15:20.492Z,987.43
2023-10-20T12:16:20.461Z,987.31
2023-10-20T12:17:20.431Z,987.40
2023-10-20T12:18:20.460Z,987.41
2023-10-20T12:19:20.387Z,987.32
2023-10-20T12:20:20.427Z,987.31
2023-10-20T12:21:20.373Z,987.29
2023-10-20T12:22:20.351Z,987.27
2023-10-20T12:23:20.367Z,987.35
2023-10-20T12:24:20.337Z,987.25
2023-10-20T12:25:20.314Z,987.28
2023-10-20T12:26:20.351Z,987.28
2023-10-20T12:27:20.301Z,987.29
2023-10-20T12:28:20.284Z,987.32